sensor_id;sensor_type;location;lat;lon;timestamp;P1;durP1;ratioP1;P2;durP2;ratioP2
4700;SDS011;8724;51.272;6.554;2024-03-17T00:01:17;5.50;;;4.23;;
4700;SDS011;8724;51.272;6.554;2024-03-17T00:03:45;7.87;;;4.77;;
4700;SDS011;8724;51.272;6.554;2024-03-17T00:06:13;9.17;;;4.37;;
4700;SDS011;8724;51.272;6.554;2024-03-17T00:08:40;6.97;;;3.97;;
4700;SDS011;8724;51.272;6.554;2024-03-17T00:11:07;6.60;;;4.33;;
4700;SDS011;8724;51.272;6.554;2024-03-17T00:13:34;6.70;;;4.17;;
4700;SDS011;8724;51.272;6.554;2024-03-17T00:16:00;10.27;;;4.77;;
4700;SDS011;8724;51.272;6.554;2024-03-17T00:18:27;5.80;;;4.53;;
4700;SDS011;8724;51.272;6.554;2024-03-17T00:20:53;6.97;;;4.10;;
4700;SDS011;8724;51.272;6.554;2024-03-17T00:23:22;8.63;;;3.73;;
4700;SDS011;8724;51.272;6.554;2024-03-17T00:25:48;6.67;;;4.50;;
4700;SDS011;8724;51.272;6.554;2024-03-17T00:28:16;9.53;;;4.27;;
4700;SDS011;8724;51.272;6.554;2024-03-17T00:30:42;6.80;;;4.60;;
4700;SDS011;8724;51.272;6.554;2024-03-17T00:33:10;4.70;;;4.20;;
4700;SDS011;8724;51.272;6.554;2024-03-17T00:35:36;7.83;;;4.50;;
4700;SDS011;8724;51.272;6.554;2024-03-17T00:38:03;6.67;;;5.60;;
4700;SDS011;8724;51.272;6.554;2024-03-17T00:40:36;7.40;;;4.47;;
4700;SDS011;8724;51.272;6.554;2024-03-17T00:43:04;9.60;;;5.00;;
4700;SDS011;8724;51.272;6.554;2024-03-17T00:45:30;6.67;;;4.27;;
4700;SDS011;8724;51.272;6.554;2024-03-17T00:47:57;8.20;;;4.53;;
4700;SDS011;8724;51.272;6.554;2024-03-17T00:50:23;5.87;;;4.30;;
4700;SDS011;8724;51.272;6.554;2024-03-17T00:52:50;9.33;;;4.80;;
4700;SDS011;8724;51.272;6.554;2024-03-17T00:55:16;6.13;;;4.20;;
4700;SDS011;8724;51.272;6.554;2024-03-17T00:57:45;7.60;;;4.77;;
4700;SDS011;8724;51.272;6.554;2024-03-17T01:00:12;6.17;;;4.40;;
4700;SDS011;8724;51.272;6.554;2024-03-17T01:02:40;8.53;;;4.57;;
4700;SDS011;8724;51.272;6.554;2024-03-17T01:05:07;10.60;;;4.37;;
4700;SDS011;8724;51.272;6.554;2024-03-17T01:07:34;8.47;;;5.17;;
4700;SDS011;8724;51.272;6.554;2024-03-17T01:10:01;6.60;;;4.60;;
4700;SDS011;8724;51.272;6.554;2024-03-17T01:12:28;7.47;;;4.90;;
4700;SDS011;8724;51.272;6.554;2024-03-17T01:14:55;6.73;;;4.30;;
4700;SDS011;8724;51.272;6.554;2024-03-17T01:17:23;4.33;;;3.90;;
4700;SDS011;8724;51.272;6.554;2024-03-17T01:19:49;6.37;;;3.83;;
4700;SDS011;8724;51.272;6.554;2024-03-17T01:22:17;5.50;;;4.50;;
4700;SDS011;8724;51.272;6.554;2024-03-17T01:24:43;6.13;;;4.00;;
4700;SDS011;8724;51.272;6.554;2024-03-17T01:27:11;9.90;;;4.50;;
4700;SDS011;8724;51.272;6.554;2024-03-17T01:29:40;11.63;;;4.60;;
4700;SDS011;8724;51.272;6.554;2024-03-17T01:32:10;5.73;;;4.43;;
4700;SDS011;8724;51.272;6.554;2024-03-17T01:34:36;7.50;;;4.43;;
4700;SDS011;8724;51.272;6.554;2024-03-17T01:37:03;8.47;;;4.57;;
4700;SDS011;8724;51.272;6.554;2024-03-17T01:39:30;4.63;;;3.90;;
4700;SDS011;8724;51.272;6.554;2024-03-17T01:41:57;4.97;;;4.47;;
4700;SDS011;8724;51.272;6.554;2024-03-17T01:44:25;6.80;;;4.07;;
4700;SDS011;8724;51.272;6.554;2024-03-17T01:46:53;7.90;;;4.20;;
4700;SDS011;8724;51.272;6.554;2024-03-17T01:49:21;5.13;;;3.83;;
4700;SDS011;8724;51.272;6.554;2024-03-17T01:51:49;5.57;;;4.10;;
4700;SDS011;8724;51.272;6.554;2024-03-17T01:54:15;9.03;;;4.63;;
4700;SDS011;8724;51.272;6.554;2024-03-17T01:56:43;5.53;;;4.37;;
4700;SDS011;8724;51.272;6.554;2024-03-17T01:59:10;7.57;;;3.87;;
4700;SDS011;8724;51.272;6.554;2024-03-17T02:01:37;8.00;;;4.13;;
4700;SDS011;8724;51.272;6.554;2024-03-17T02:04:04;4.53;;;3.53;;
4700;SDS011;8724;51.272;6.554;2024-03-17T02:06:33;10.10;;;3.97;;
4700;SDS011;8724;51.272;6.554;2024-03-17T02:09:00;6.00;;;3.57;;
4700;SDS011;8724;51.272;6.554;2024-03-17T02:11:28;7.30;;;4.20;;
4700;SDS011;8724;51.272;6.554;2024-03-17T02:13:56;5.40;;;4.40;;
4700;SDS011;8724;51.272;6.554;2024-03-17T02:16:23;5.70;;;4.40;;
4700;SDS011;8724;51.272;6.554;2024-03-17T02:18:53;4.43;;;4.00;;
4700;SDS011;8724;51.272;6.554;2024-03-17T02:21:20;5.60;;;4.07;;
4700;SDS011;8724;51.272;6.554;2024-03-17T02:23:49;5.93;;;4.50;;
4700;SDS011;8724;51.272;6.554;2024-03-17T02:26:17;6.23;;;5.03;;
4700;SDS011;8724;51.272;6.554;2024-03-17T02:28:44;4.97;;;4.47;;
4700;SDS011;8724;51.272;6.554;2024-03-17T02:31:13;5.23;;;4.70;;
4700;SDS011;8724;51.272;6.554;2024-03-17T02:33:41;6.50;;;4.70;;
4700;SDS011;8724;51.272;6.554;2024-03-17T02:36:09;6.10;;;5.17;;
4700;SDS011;8724;51.272;6.554;2024-03-17T02:38:37;5.70;;;5.00;;
4700;SDS011;8724;51.272;6.554;2024-03-17T02:41:24;7.43;;;4.97;;
4700;SDS011;8724;51.272;6.554;2024-03-17T02:43:52;8.10;;;5.63;;
4700;SDS011;8724;51.272;6.554;2024-03-17T02:46:19;7.40;;;5.63;;
4700;SDS011;8724;51.272;6.554;2024-03-17T02:48:49;9.50;;;6.30;;
4700;SDS011;8724;51.272;6.554;2024-03-17T02:51:18;7.83;;;6.00;;
4700;SDS011;8724;51.272;6.554;2024-03-17T02:53:46;8.10;;;4.77;;
4700;SDS011;8724;51.272;6.554;2024-03-17T02:56:15;6.33;;;5.73;;
4700;SDS011;8724;51.272;6.554;2024-03-17T02:58:45;6.60;;;5.50;;
4700;SDS011;8724;51.272;6.554;2024-03-17T03:01:13;6.00;;;5.10;;
4700;SDS011;8724;51.272;6.554;2024-03-17T03:03:41;6.87;;;5.40;;
4700;SDS011;8724;51.272;6.554;2024-03-17T03:06:08;6.17;;;5.60;;
4700;SDS011;8724;51.272;6.554;2024-03-17T03:08:38;6.87;;;4.87;;
4700;SDS011;8724;51.272;6.554;2024-03-17T03:11:06;6.57;;;5.93;;
4700;SDS011;8724;51.272;6.554;2024-03-17T03:13:36;7.93;;;5.70;;
4700;SDS011;8724;51.272;6.554;2024-03-17T03:16:06;6.63;;;5.90;;
4700;SDS011;8724;51.272;6.554;2024-03-17T03:18:34;6.50;;;5.70;;
4700;SDS011;8724;51.272;6.554;2024-03-17T03:21:02;7.40;;;6.17;;
4700;SDS011;8724;51.272;6.554;2024-03-17T03:23:29;9.10;;;5.57;;
4700;SDS011;8724;51.272;6.554;2024-03-17T03:25:58;8.93;;;5.77;;
4700;SDS011;8724;51.272;6.554;2024-03-17T03:28:27;6.30;;;5.10;;
4700;SDS011;8724;51.272;6.554;2024-03-17T03:30:56;6.87;;;5.23;;
4700;SDS011;8724;51.272;6.554;2024-03-17T03:33:25;8.20;;;5.63;;
4700;SDS011;8724;51.272;6.554;2024-03-17T03:35:52;9.50;;;5.43;;
4700;SDS011;8724;51.272;6.554;2024-03-17T03:38:21;7.50;;;5.40;;
4700;SDS011;8724;51.272;6.554;2024-03-17T03:40:48;6.47;;;5.30;;
4700;SDS011;8724;51.272;6.554;2024-03-17T03:43:15;5.87;;;5.30;;
4700;SDS011;8724;51.272;6.554;2024-03-17T03:45:43;8.20;;;5.50;;
4700;SDS011;8724;51.272;6.554;2024-03-17T03:48:10;6.40;;;5.33;;
4700;SDS011;8724;51.272;6.554;2024-03-17T03:50:39;7.23;;;5.90;;
4700;SDS011;8724;51.272;6.554;2024-03-17T03:53:07;6.47;;;5.67;;
4700;SDS011;8724;51.272;6.554;2024-03-17T03:55:34;6.70;;;5.77;;
4700;SDS011;8724;51.272;6.554;2024-03-17T03:58:01;5.50;;;4.97;;
4700;SDS011;8724;51.272;6.554;2024-03-17T04:00:29;5.80;;;5.20;;
4700;SDS011;8724;51.272;6.554;2024-03-17T04:02:57;9.30;;;4.93;;
4700;SDS011;8724;51.272;6.554;2024-03-17T04:05:27;5.80;;;5.20;;
4700;SDS011;8724;51.272;6.554;2024-03-17T04:07:56;7.93;;;5.87;;
4700;SDS011;8724;51.272;6.554;2024-03-17T04:10:23;9.10;;;5.20;;
4700;SDS011;8724;51.272;6.554;2024-03-17T04:12:51;7.53;;;4.73;;
4700;SDS011;8724;51.272;6.554;2024-03-17T04:15:18;6.80;;;5.40;;
4700;SDS011;8724;51.272;6.554;2024-03-17T04:17:45;5.93;;;4.73;;
4700;SDS011;8724;51.272;6.554;2024-03-17T04:20:12;7.40;;;5.57;;
4700;SDS011;8724;51.272;6.554;2024-03-17T04:22:40;5.87;;;5.13;;
4700;SDS011;8724;51.272;6.554;2024-03-17T04:25:10;5.70;;;4.40;;
4700;SDS011;8724;51.272;6.554;2024-03-17T04:27:38;7.13;;;5.60;;
4700;SDS011;8724;51.272;6.554;2024-03-17T04:30:06;7.30;;;4.90;;
4700;SDS011;8724;51.272;6.554;2024-03-17T04:32:33;5.20;;;4.50;;
4700;SDS011;8724;51.272;6.554;2024-03-17T04:35:01;7.13;;;5.47;;
4700;SDS011;8724;51.272;6.554;2024-03-17T04:37:29;4.93;;;4.53;;
4700;SDS011;8724;51.272;6.554;2024-03-17T04:39:56;8.80;;;5.53;;
4700;SDS011;8724;51.272;6.554;2024-03-17T04:42:24;7.03;;;4.10;;
4700;SDS011;8724;51.272;6.554;2024-03-17T04:44:52;6.37;;;5.00;;
4700;SDS011;8724;51.272;6.554;2024-03-17T04:47:19;5.37;;;4.83;;
4700;SDS011;8724;51.272;6.554;2024-03-17T04:49:46;10.33;;;5.30;;
4700;SDS011;8724;51.272;6.554;2024-03-17T04:52:13;10.53;;;4.70;;
4700;SDS011;8724;51.272;6.554;2024-03-17T04:54:41;7.23;;;5.40;;
4700;SDS011;8724;51.272;6.554;2024-03-17T04:57:09;6.67;;;4.70;;
4700;SDS011;8724;51.272;6.554;2024-03-17T04:59:38;5.83;;;5.23;;
4700;SDS011;8724;51.272;6.554;2024-03-17T05:02:05;4.57;;;4.07;;
4700;SDS011;8724;51.272;6.554;2024-03-17T05:04:32;5.13;;;4.60;;
4700;SDS011;8724;51.272;6.554;2024-03-17T05:07:00;4.97;;;3.93;;
4700;SDS011;8724;51.272;6.554;2024-03-17T05:09:27;4.57;;;4.07;;
4700;SDS011;8724;51.272;6.554;2024-03-17T05:11:54;7.97;;;5.77;;
4700;SDS011;8724;51.272;6.554;2024-03-17T05:14:21;5.33;;;4.73;;
4700;SDS011;8724;51.272;6.554;2024-03-17T05:16:50;5.37;;;4.87;;
4700;SDS011;8724;51.272;6.554;2024-03-17T05:19:18;6.50;;;4.73;;
4700;SDS011;8724;51.272;6.554;2024-03-17T05:21:45;5.50;;;4.40;;
4700;SDS011;8724;51.272;6.554;2024-03-17T05:24:12;4.90;;;4.40;;
4700;SDS011;8724;51.272;6.554;2024-03-17T05:26:40;4.97;;;4.47;;
4700;SDS011;8724;51.272;6.554;2024-03-17T05:29:07;5.93;;;4.37;;
4700;SDS011;8724;51.272;6.554;2024-03-17T05:31:34;5.80;;;5.30;;
4700;SDS011;8724;51.272;6.554;2024-03-17T05:34:05;8.20;;;5.10;;
4700;SDS011;8724;51.272;6.554;2024-03-17T05:36:32;5.33;;;4.23;;
4700;SDS011;8724;51.272;6.554;2024-03-17T05:39:00;8.03;;;4.63;;
4700;SDS011;8724;51.272;6.554;2024-03-17T05:41:27;4.73;;;4.20;;
4700;SDS011;8724;51.272;6.554;2024-03-17T05:43:54;4.50;;;4.10;;
4700;SDS011;8724;51.272;6.554;2024-03-17T05:46:23;5.13;;;4.63;;
4700;SDS011;8724;51.272;6.554;2024-03-17T05:48:52;5.30;;;4.60;;
4700;SDS011;8724;51.272;6.554;2024-03-17T05:51:20;5.30;;;4.10;;
4700;SDS011;8724;51.272;6.554;2024-03-17T05:53:50;5.37;;;4.83;;
4700;SDS011;8724;51.272;6.554;2024-03-17T05:56:18;4.70;;;4.17;;
4700;SDS011;8724;51.272;6.554;2024-03-17T05:58:45;4.20;;;3.90;;
4700;SDS011;8724;51.272;6.554;2024-03-17T06:01:12;5.93;;;4.40;;
4700;SDS011;8724;51.272;6.554;2024-03-17T06:03:39;4.90;;;4.40;;
4700;SDS011;8724;51.272;6.554;2024-03-17T06:06:07;5.60;;;4.40;;
4700;SDS011;8724;51.272;6.554;2024-03-17T06:08:36;5.70;;;4.23;;
4700;SDS011;8724;51.272;6.554;2024-03-17T06:11:04;5.37;;;4.20;;
4700;SDS011;8724;51.272;6.554;2024-03-17T06:13:32;4.73;;;4.27;;
4700;SDS011;8724;51.272;6.554;2024-03-17T06:16:01;7.57;;;4.47;;
4700;SDS011;8724;51.272;6.554;2024-03-17T06:18:29;4.90;;;4.50;;
4700;SDS011;8724;51.272;6.554;2024-03-17T06:20:56;4.10;;;3.73;;
4700;SDS011;8724;51.272;6.554;2024-03-17T06:23:24;5.07;;;4.60;;
4700;SDS011;8724;51.272;6.554;2024-03-17T06:25:55;5.30;;;4.63;;
4700;SDS011;8724;51.272;6.554;2024-03-17T06:28:22;5.30;;;4.13;;
4700;SDS011;8724;51.272;6.554;2024-03-17T06:30:55;4.67;;;4.27;;
4700;SDS011;8724;51.272;6.554;2024-03-17T06:33:24;4.93;;;4.50;;
4700;SDS011;8724;51.272;6.554;2024-03-17T06:35:53;4.70;;;4.30;;
4700;SDS011;8724;51.272;6.554;2024-03-17T06:38:21;3.97;;;3.67;;
4700;SDS011;8724;51.272;6.554;2024-03-17T06:40:49;5.23;;;4.20;;
4700;SDS011;8724;51.272;6.554;2024-03-17T06:43:18;4.80;;;4.00;;
4700;SDS011;8724;51.272;6.554;2024-03-17T06:48:33;4.43;;;4.03;;
4700;SDS011;8724;51.272;6.554;2024-03-17T06:51:00;8.17;;;5.00;;
4700;SDS011;8724;51.272;6.554;2024-03-17T06:53:27;4.43;;;4.03;;
4700;SDS011;8724;51.272;6.554;2024-03-17T06:55:54;4.60;;;4.00;;
4700;SDS011;8724;51.272;6.554;2024-03-17T06:58:25;5.10;;;3.80;;
4700;SDS011;8724;51.272;6.554;2024-03-17T07:00:54;4.30;;;3.90;;
4700;SDS011;8724;51.272;6.554;2024-03-17T07:03:22;4.30;;;3.80;;
4700;SDS011;8724;51.272;6.554;2024-03-17T07:05:50;4.10;;;3.73;;
4700;SDS011;8724;51.272;6.554;2024-03-17T07:08:19;6.93;;;4.30;;
4700;SDS011;8724;51.272;6.554;2024-03-17T07:10:56;4.93;;;4.43;;
4700;SDS011;8724;51.272;6.554;2024-03-17T07:13:27;4.13;;;3.73;;
4700;SDS011;8724;51.272;6.554;2024-03-17T07:15:55;4.23;;;3.77;;
4700;SDS011;8724;51.272;6.554;2024-03-17T07:18:22;3.73;;;3.43;;
4700;SDS011;8724;51.272;6.554;2024-03-17T07:20:51;4.40;;;3.77;;
4700;SDS011;8724;51.272;6.554;2024-03-17T07:23:19;6.80;;;4.10;;
4700;SDS011;8724;51.272;6.554;2024-03-17T07:25:52;6.10;;;4.40;;
4700;SDS011;8724;51.272;6.554;2024-03-17T07:28:20;3.90;;;3.60;;
4700;SDS011;8724;51.272;6.554;2024-03-17T07:30:49;4.60;;;3.30;;
4700;SDS011;8724;51.272;6.554;2024-03-17T07:33:19;3.83;;;3.53;;
4700;SDS011;8724;51.272;6.554;2024-03-17T07:35:47;5.47;;;3.77;;
4700;SDS011;8724;51.272;6.554;2024-03-17T07:38:15;4.17;;;3.77;;
4700;SDS011;8724;51.272;6.554;2024-03-17T07:40:43;3.63;;;3.20;;
4700;SDS011;8724;51.272;6.554;2024-03-17T07:43:10;4.00;;;3.57;;
4700;SDS011;8724;51.272;6.554;2024-03-17T07:45:38;3.90;;;3.60;;
4700;SDS011;8724;51.272;6.554;2024-03-17T07:48:06;4.27;;;3.60;;
4700;SDS011;8724;51.272;6.554;2024-03-17T07:50:34;5.77;;;3.90;;
4700;SDS011;8724;51.272;6.554;2024-03-17T07:53:01;4.77;;;4.10;;
4700;SDS011;8724;51.272;6.554;2024-03-17T07:55:29;4.33;;;3.00;;
4700;SDS011;8724;51.272;6.554;2024-03-17T07:57:56;3.80;;;3.40;;
4700;SDS011;8724;51.272;6.554;2024-03-17T08:00:24;3.87;;;3.43;;
4700;SDS011;8724;51.272;6.554;2024-03-17T08:02:51;4.33;;;3.47;;
4700;SDS011;8724;51.272;6.554;2024-03-17T08:05:20;5.43;;;3.27;;
4700;SDS011;8724;51.272;6.554;2024-03-17T08:07:47;4.00;;;3.60;;
4700;SDS011;8724;51.272;6.554;2024-03-17T08:10:15;3.63;;;2.73;;
4700;SDS011;8724;51.272;6.554;2024-03-17T08:12:43;2.87;;;2.67;;
4700;SDS011;8724;51.272;6.554;2024-03-17T08:15:11;3.50;;;3.20;;
4700;SDS011;8724;51.272;6.554;2024-03-17T08:17:38;3.10;;;2.90;;
4700;SDS011;8724;51.272;6.554;2024-03-17T08:20:06;3.47;;;3.03;;
4700;SDS011;8724;51.272;6.554;2024-03-17T08:22:35;4.73;;;3.83;;
4700;SDS011;8724;51.272;6.554;2024-03-17T08:25:01;2.87;;;2.67;;
4700;SDS011;8724;51.272;6.554;2024-03-17T08:27:30;3.80;;;3.20;;
4700;SDS011;8724;51.272;6.554;2024-03-17T08:29:58;5.57;;;3.47;;
4700;SDS011;8724;51.272;6.554;2024-03-17T08:32:25;3.47;;;2.80;;
4700;SDS011;8724;51.272;6.554;2024-03-17T08:34:52;3.83;;;2.87;;
4700;SDS011;8724;51.272;6.554;2024-03-17T08:37:19;3.53;;;3.00;;
4700;SDS011;8724;51.272;6.554;2024-03-17T08:39:48;4.07;;;2.50;;
4700;SDS011;8724;51.272;6.554;2024-03-17T08:42:15;4.80;;;3.30;;
4700;SDS011;8724;51.272;6.554;2024-03-17T08:44:45;2.93;;;2.43;;
4700;SDS011;8724;51.272;6.554;2024-03-17T08:47:12;3.27;;;2.97;;
4700;SDS011;8724;51.272;6.554;2024-03-17T08:49:39;3.40;;;3.10;;
4700;SDS011;8724;51.272;6.554;2024-03-17T08:52:06;3.17;;;2.57;;
4700;SDS011;8724;51.272;6.554;2024-03-17T08:54:34;3.37;;;2.87;;
4700;SDS011;8724;51.272;6.554;2024-03-17T08:57:03;3.97;;;3.23;;
4700;SDS011;8724;51.272;6.554;2024-03-17T08:59:31;2.90;;;2.63;;
4700;SDS011;8724;51.272;6.554;2024-03-17T09:01:58;2.80;;;2.20;;
4700;SDS011;8724;51.272;6.554;2024-03-17T09:04:25;2.93;;;2.73;;
4700;SDS011;8724;51.272;6.554;2024-03-17T09:06:52;5.80;;;3.57;;
4700;SDS011;8724;51.272;6.554;2024-03-17T09:09:21;3.20;;;2.70;;
4700;SDS011;8724;51.272;6.554;2024-03-17T09:11:48;2.80;;;2.60;;
4700;SDS011;8724;51.272;6.554;2024-03-17T09:14:18;3.00;;;2.80;;
4700;SDS011;8724;51.272;6.554;2024-03-17T09:16:46;2.97;;;2.70;;
4700;SDS011;8724;51.272;6.554;2024-03-17T09:19:13;3.13;;;2.83;;
4700;SDS011;8724;51.272;6.554;2024-03-17T09:21:40;3.20;;;3.00;;
4700;SDS011;8724;51.272;6.554;2024-03-17T09:24:08;2.67;;;2.43;;
4700;SDS011;8724;51.272;6.554;2024-03-17T09:26:35;3.00;;;2.80;;
4700;SDS011;8724;51.272;6.554;2024-03-17T09:29:04;2.80;;;2.60;;
4700;SDS011;8724;51.272;6.554;2024-03-17T09:31:33;7.03;;;3.20;;
4700;SDS011;8724;51.272;6.554;2024-03-17T09:34:00;4.33;;;3.57;;
4700;SDS011;8724;51.272;6.554;2024-03-17T09:36:28;6.23;;;3.97;;
4700;SDS011;8724;51.272;6.554;2024-03-17T09:38:56;3.30;;;2.83;;
4700;SDS011;8724;51.272;6.554;2024-03-17T09:41:24;4.27;;;3.10;;
4700;SDS011;8724;51.272;6.554;2024-03-17T09:43:53;3.07;;;2.33;;
4700;SDS011;8724;51.272;6.554;2024-03-17T09:46:20;4.03;;;3.10;;
4700;SDS011;8724;51.272;6.554;2024-03-17T09:48:50;3.00;;;2.70;;
4700;SDS011;8724;51.272;6.554;2024-03-17T09:51:19;3.17;;;2.90;;
4700;SDS011;8724;51.272;6.554;2024-03-17T09:53:48;3.03;;;2.83;;
4700;SDS011;8724;51.272;6.554;2024-03-17T09:56:17;3.70;;;2.80;;
4700;SDS011;8724;51.272;6.554;2024-03-17T09:58:45;3.10;;;2.90;;
4700;SDS011;8724;51.272;6.554;2024-03-17T10:01:13;2.70;;;2.50;;
4700;SDS011;8724;51.272;6.554;2024-03-17T10:03:43;3.20;;;2.90;;
4700;SDS011;8724;51.272;6.554;2024-03-17T10:06:16;2.80;;;2.57;;
4700;SDS011;8724;51.272;6.554;2024-03-17T10:08:44;3.60;;;3.20;;
4700;SDS011;8724;51.272;6.554;2024-03-17T10:11:13;2.90;;;2.60;;
4700;SDS011;8724;51.272;6.554;2024-03-17T10:13:41;2.97;;;2.43;;
4700;SDS011;8724;51.272;6.554;2024-03-17T10:16:22;3.17;;;2.60;;
4700;SDS011;8724;51.272;6.554;2024-03-17T10:18:50;4.37;;;2.70;;
4700;SDS011;8724;51.272;6.554;2024-03-17T10:21:33;2.50;;;2.30;;
4700;SDS011;8724;51.272;6.554;2024-03-17T10:24:07;2.80;;;2.40;;
4700;SDS011;8724;51.272;6.554;2024-03-17T10:26:40;2.77;;;2.57;;
4700;SDS011;8724;51.272;6.554;2024-03-17T10:29:19;2.93;;;2.73;;
4700;SDS011;8724;51.272;6.554;2024-03-17T10:31:50;2.70;;;2.50;;
4700;SDS011;8724;51.272;6.554;2024-03-17T10:34:18;2.83;;;2.47;;
4700;SDS011;8724;51.272;6.554;2024-03-17T10:36:51;2.77;;;2.57;;
4700;SDS011;8724;51.272;6.554;2024-03-17T10:39:25;3.10;;;2.80;;
4700;SDS011;8724;51.272;6.554;2024-03-17T10:41:58;3.13;;;2.40;;
4700;SDS011;8724;51.272;6.554;2024-03-17T10:44:27;2.10;;;2.00;;
4700;SDS011;8724;51.272;6.554;2024-03-17T10:46:56;2.37;;;2.17;;
4700;SDS011;8724;51.272;6.554;2024-03-17T10:49:27;2.37;;;2.17;;
4700;SDS011;8724;51.272;6.554;2024-03-17T10:51:58;2.40;;;2.20;;
4700;SDS011;8724;51.272;6.554;2024-03-17T10:54:28;2.93;;;2.30;;
4700;SDS011;8724;51.272;6.554;2024-03-17T10:56:56;2.30;;;2.10;;
4700;SDS011;8724;51.272;6.554;2024-03-17T10:59:27;2.13;;;2.00;;
4700;SDS011;8724;51.272;6.554;2024-03-17T11:02:05;3.30;;;2.73;;
4700;SDS011;8724;51.272;6.554;2024-03-17T11:04:45;2.30;;;2.20;;
4700;SDS011;8724;51.272;6.554;2024-03-17T11:07:15;2.40;;;2.27;;
4700;SDS011;8724;51.272;6.554;2024-03-17T11:09:44;5.93;;;2.90;;
4700;SDS011;8724;51.272;6.554;2024-03-17T11:20:57;3.03;;;2.73;;
4700;SDS011;8724;51.272;6.554;2024-03-17T11:23:29;2.43;;;2.20;;
4700;SDS011;8724;51.272;6.554;2024-03-17T11:25:57;3.63;;;2.73;;
4700;SDS011;8724;51.272;6.554;2024-03-17T11:28:44;2.90;;;2.70;;
4700;SDS011;8724;51.272;6.554;2024-03-17T11:34:27;2.90;;;2.47;;
4700;SDS011;8724;51.272;6.554;2024-03-17T11:36:57;2.70;;;2.40;;
4700;SDS011;8724;51.272;6.554;2024-03-17T11:42:18;1.80;;;1.70;;
4700;SDS011;8724;51.272;6.554;2024-03-17T11:45:04;3.00;;;2.70;;
4700;SDS011;8724;51.272;6.554;2024-03-17T11:47:36;2.43;;;2.27;;
4700;SDS011;8724;51.272;6.554;2024-03-17T11:50:04;2.73;;;2.53;;
4700;SDS011;8724;51.272;6.554;2024-03-17T11:52:33;2.73;;;2.53;;
4700;SDS011;8724;51.272;6.554;2024-03-17T11:55:02;3.20;;;2.90;;
4700;SDS011;8724;51.272;6.554;2024-03-17T11:57:28;2.23;;;2.13;;
4700;SDS011;8724;51.272;6.554;2024-03-17T11:59:56;2.80;;;2.60;;
4700;SDS011;8724;51.272;6.554;2024-03-17T12:02:24;3.23;;;2.50;;
4700;SDS011;8724;51.272;6.554;2024-03-17T12:04:53;2.30;;;2.10;;
4700;SDS011;8724;51.272;6.554;2024-03-17T12:07:22;5.23;;;3.07;;
4700;SDS011;8724;51.272;6.554;2024-03-17T12:09:50;7.53;;;3.87;;
4700;SDS011;8724;51.272;6.554;2024-03-17T12:12:19;5.90;;;3.57;;
4700;SDS011;8724;51.272;6.554;2024-03-17T12:14:47;6.00;;;4.03;;
4700;SDS011;8724;51.272;6.554;2024-03-17T12:17:14;11.00;;;4.33;;
4700;SDS011;8724;51.272;6.554;2024-03-17T12:19:48;8.57;;;4.30;;
4700;SDS011;8724;51.272;6.554;2024-03-17T12:22:15;4.57;;;4.10;;
4700;SDS011;8724;51.272;6.554;2024-03-17T12:24:47;5.40;;;4.13;;
4700;SDS011;8724;51.272;6.554;2024-03-17T12:27:16;8.00;;;4.70;;
4700;SDS011;8724;51.272;6.554;2024-03-17T12:29:45;6.50;;;4.23;;
4700;SDS011;8724;51.272;6.554;2024-03-17T12:32:14;9.67;;;4.60;;
4700;SDS011;8724;51.272;6.554;2024-03-17T12:34:41;9.23;;;4.50;;
4700;SDS011;8724;51.272;6.554;2024-03-17T12:37:13;11.20;;;4.57;;
4700;SDS011;8724;51.272;6.554;2024-03-17T12:39:42;8.07;;;3.70;;
4700;SDS011;8724;51.272;6.554;2024-03-17T12:42:10;8.17;;;4.03;;
4700;SDS011;8724;51.272;6.554;2024-03-17T12:44:40;7.90;;;4.00;;
4700;SDS011;8724;51.272;6.554;2024-03-17T12:47:15;3.93;;;3.37;;
4700;SDS011;8724;51.272;6.554;2024-03-17T12:49:46;4.77;;;2.80;;
4700;SDS011;8724;51.272;6.554;2024-03-17T12:52:18;2.83;;;2.50;;
4700;SDS011;8724;51.272;6.554;2024-03-17T12:54:55;4.83;;;3.27;;
4700;SDS011;8724;51.272;6.554;2024-03-17T12:57:44;2.70;;;2.50;;
4700;SDS011;8724;51.272;6.554;2024-03-17T13:00:30;2.53;;;2.30;;
4700;SDS011;8724;51.272;6.554;2024-03-17T13:02:59;2.57;;;1.90;;
4700;SDS011;8724;51.272;6.554;2024-03-17T13:05:27;3.30;;;2.20;;
4700;SDS011;8724;51.272;6.554;2024-03-17T13:07:54;2.17;;;1.97;;
4700;SDS011;8724;51.272;6.554;2024-03-17T13:10:22;2.90;;;2.23;;
4700;SDS011;8724;51.272;6.554;2024-03-17T13:12:58;1.67;;;1.57;;
4700;SDS011;8724;51.272;6.554;2024-03-17T13:15:26;3.07;;;2.30;;
4700;SDS011;8724;51.272;6.554;2024-03-17T13:17:55;1.53;;;1.43;;
4700;SDS011;8724;51.272;6.554;2024-03-17T13:20:22;2.50;;;1.93;;
4700;SDS011;8724;51.272;6.554;2024-03-17T13:22:49;2.20;;;2.00;;
4700;SDS011;8724;51.272;6.554;2024-03-17T13:25:17;2.00;;;1.90;;
4700;SDS011;8724;51.272;6.554;2024-03-17T13:27:46;2.40;;;1.73;;
4700;SDS011;8724;51.272;6.554;2024-03-17T13:30:14;1.70;;;1.60;;
4700;SDS011;8724;51.272;6.554;2024-03-17T13:32:42;2.87;;;1.97;;
4700;SDS011;8724;51.272;6.554;2024-03-17T13:35:15;2.13;;;1.83;;
4700;SDS011;8724;51.272;6.554;2024-03-17T13:37:44;1.90;;;1.70;;
4700;SDS011;8724;51.272;6.554;2024-03-17T13:40:13;1.70;;;1.23;;
4700;SDS011;8724;51.272;6.554;2024-03-17T13:42:42;2.63;;;1.80;;
4700;SDS011;8724;51.272;6.554;2024-03-17T13:45:10;1.60;;;1.50;;
4700;SDS011;8724;51.272;6.554;2024-03-17T13:47:38;1.70;;;1.60;;
4700;SDS011;8724;51.272;6.554;2024-03-17T13:50:06;3.37;;;1.60;;
4700;SDS011;8724;51.272;6.554;2024-03-17T13:52:39;1.97;;;1.80;;
4700;SDS011;8724;51.272;6.554;2024-03-17T13:55:08;1.90;;;1.80;;
4700;SDS011;8724;51.272;6.554;2024-03-17T13:57:42;1.80;;;1.70;;
4700;SDS011;8724;51.272;6.554;2024-03-17T14:00:11;1.40;;;1.30;;
4700;SDS011;8724;51.272;6.554;2024-03-17T14:02:41;3.00;;;2.60;;
4700;SDS011;8724;51.272;6.554;2024-03-17T14:05:10;3.07;;;2.80;;
4700;SDS011;8724;51.272;6.554;2024-03-17T14:07:40;2.30;;;2.03;;
4700;SDS011;8724;51.272;6.554;2024-03-17T14:10:09;2.47;;;2.27;;
4700;SDS011;8724;51.272;6.554;2024-03-17T14:12:37;2.50;;;2.30;;
4700;SDS011;8724;51.272;6.554;2024-03-17T14:15:06;2.50;;;1.90;;
4700;SDS011;8724;51.272;6.554;2024-03-17T14:17:36;2.20;;;2.00;;
4700;SDS011;8724;51.272;6.554;2024-03-17T14:20:03;2.00;;;1.90;;
4700;SDS011;8724;51.272;6.554;2024-03-17T14:22:34;2.27;;;2.07;;
4700;SDS011;8724;51.272;6.554;2024-03-17T14:25:03;1.87;;;1.77;;
4700;SDS011;8724;51.272;6.554;2024-03-17T14:27:32;1.90;;;1.80;;
4700;SDS011;8724;51.272;6.554;2024-03-17T14:30:00;1.83;;;1.70;;
4700;SDS011;8724;51.272;6.554;2024-03-17T14:32:27;2.33;;;1.90;;
4700;SDS011;8724;51.272;6.554;2024-03-17T14:34:54;1.77;;;1.67;;
4700;SDS011;8724;51.272;6.554;2024-03-17T14:37:21;2.37;;;1.53;;
4700;SDS011;8724;51.272;6.554;2024-03-17T14:39:49;2.47;;;1.70;;
4700;SDS011;8724;51.272;6.554;2024-03-17T14:42:19;1.90;;;1.80;;
4700;SDS011;8724;51.272;6.554;2024-03-17T14:44:46;1.50;;;1.40;;
4700;SDS011;8724;51.272;6.554;2024-03-17T14:47:14;1.90;;;1.80;;
4700;SDS011;8724;51.272;6.554;2024-03-17T14:49:41;1.53;;;1.40;;
4700;SDS011;8724;51.272;6.554;2024-03-17T14:52:09;2.20;;;2.00;;
4700;SDS011;8724;51.272;6.554;2024-03-17T14:54:36;2.40;;;2.20;;
4700;SDS011;8724;51.272;6.554;2024-03-17T14:57:04;1.87;;;1.73;;
4700;SDS011;8724;51.272;6.554;2024-03-17T14:59:32;2.47;;;1.60;;
4700;SDS011;8724;51.272;6.554;2024-03-17T15:01:59;1.67;;;1.57;;
4700;SDS011;8724;51.272;6.554;2024-03-17T15:04:27;2.30;;;2.10;;
4700;SDS011;8724;51.272;6.554;2024-03-17T15:06:55;3.27;;;1.50;;
4700;SDS011;8724;51.272;6.554;2024-03-17T15:09:22;1.63;;;1.53;;
4700;SDS011;8724;51.272;6.554;2024-03-17T15:11:49;3.87;;;1.63;;
4700;SDS011;8724;51.272;6.554;2024-03-17T15:14:17;1.70;;;1.60;;
4700;SDS011;8724;51.272;6.554;2024-03-17T15:16:45;2.17;;;1.60;;
4700;SDS011;8724;51.272;6.554;2024-03-17T15:19:13;1.70;;;1.60;;
4700;SDS011;8724;51.272;6.554;2024-03-17T15:21:40;1.53;;;1.30;;
4700;SDS011;8724;51.272;6.554;2024-03-17T15:24:07;1.80;;;1.60;;
4700;SDS011;8724;51.272;6.554;2024-03-17T15:26:34;1.63;;;1.37;;
4700;SDS011;8724;51.272;6.554;2024-03-17T15:29:01;2.90;;;1.70;;
4700;SDS011;8724;51.272;6.554;2024-03-17T15:31:29;1.87;;;1.50;;
4700;SDS011;8724;51.272;6.554;2024-03-17T15:33:57;2.40;;;1.37;;
4700;SDS011;8724;51.272;6.554;2024-03-17T15:36:25;1.50;;;1.40;;
4700;SDS011;8724;51.272;6.554;2024-03-17T15:38:52;4.47;;;1.47;;
4700;SDS011;8724;51.272;6.554;2024-03-17T15:41:19;2.30;;;1.60;;